createdAt,value
2022-11-27T00:00:09.910Z,7.16
2022-11-27T00:05:14.330Z,7.21
2022-11-27T00:10:16.344Z,7.14
2022-11-27T00:15:18.883Z,7.15
2022-11-27T00:20:20.748Z,7.16
2022-11-27T00:25:22.639Z,7.26
2022-11-27T00:30:24.472Z,7.32
2022-11-27T00:35:26.393Z,7.27
2022-11-27T00:40:28.195Z,7.35
2022-11-27T00:45:30.016Z,7.27
2022-11-27T00:50:32.721Z,7.44
2022-11-27T00:55:34.526Z,7.50
2022-11-27T01:00:36.350Z,7.53
2022-11-27T01:05:38.293Z,7.56
2022-11-27T01:10:40.143Z,7.60
2022-11-27T01:15:41.967Z,7.44
2022-11-27T01:20:43.800Z,7.35
2022-11-27T01:25:45.649Z,7.27
2022-11-27T01:30:47.840Z,7.17
2022-11-27T01:36:04.982Z,7.24
2022-11-27T01:41:09.363Z,7.20
2022-11-27T01:46:32.501Z,7.34
2022-11-27T01:51:37.293Z,7.10
2022-11-27T01:56:41.972Z,7.06
2022-11-27T02:01:44.014Z,7.12
2022-11-27T02:06:47.289Z,7.25
2022-11-27T02:12:14.802Z,7.00
2022-11-27T02:17:28.410Z,6.81
2022-11-27T02:22:57.380Z,6.83
2022-11-27T02:28:38.992Z,6.94
2022-11-27T02:33:45.845Z,6.98
2022-11-27T02:38:54.099Z,6.89
2022-11-27T02:43:57.402Z,6.75
2022-11-27T02:49:03.938Z,6.67
2022-11-27T02:54:10.099Z,6.69
2022-11-27T02:59:14.848Z,6.64
2022-11-27T03:04:22.409Z,6.53
2022-11-27T03:09:39.057Z,6.41
2022-11-27T03:14:42.305Z,6.28
2022-11-27T03:19:56.327Z,6.03
2022-11-27T03:24:59.127Z,5.87
2022-11-27T03:30:02.810Z,5.83
2022-11-27T03:35:08.302Z,5.82
2022-11-27T03:40:10.931Z,5.75
2022-11-27T03:45:22.254Z,5.58
2022-11-27T03:50:39.416Z,5.49
2022-11-27T03:56:10.046Z,5.47
2022-11-27T04:01:17.225Z,5.43
2022-11-27T04:06:19.118Z,5.22
2022-11-27T04:11:20.893Z,5.27
2022-11-27T04:16:23.098Z,5.32
2022-11-27T04:21:25.147Z,5.38
2022-11-27T04:26:27.008Z,5.36
2022-11-27T04:31:28.830Z,5.38
2022-11-27T04:36:34.703Z,5.29
2022-11-27T04:41:39.737Z,5.09
2022-11-27T04:46:41.555Z,4.94
2022-11-27T04:51:43.601Z,4.75
2022-11-27T04:56:45.408Z,4.72
2022-11-27T05:01:47.379Z,4.78
2022-11-27T05:06:50.096Z,4.68
2022-11-27T05:11:51.926Z,4.63
2022-11-27T05:16:57.195Z,4.64
2022-11-27T05:21:59.517Z,4.55
2022-11-27T05:27:01.313Z,4.58
2022-11-27T05:32:03.251Z,4.54
2022-11-27T05:37:05.090Z,4.52
2022-11-27T05:42:06.901Z,4.50
2022-11-27T05:47:08.785Z,4.50
2022-11-27T05:52:10.643Z,4.44
2022-11-27T05:57:12.451Z,4.40
2022-11-27T06:02:20.740Z,4.30
2022-11-27T06:07:24.608Z,4.17
2022-11-27T06:12:26.734Z,4.21
2022-11-27T06:17:28.578Z,4.14
2022-11-27T06:22:31.419Z,4.11
2022-11-27T06:27:36.851Z,4.09
2022-11-27T06:32:38.745Z,4.20
2022-11-27T06:37:40.559Z,4.22
2022-11-27T06:42:42.338Z,4.15
2022-11-27T06:47:44.162Z,4.01
2022-11-27T06:52:45.958Z,4.02
2022-11-27T06:57:51.377Z,4.10
2022-11-27T07:02:55.066Z,4.19
2022-11-27T07:07:58.320Z,4.24
2022-11-27T07:13:00.159Z,4.35
2022-11-27T07:18:02.488Z,4.52
2022-11-27T07:23:04.293Z,4.72
2022-11-27T07:28:06.094Z,4.89
2022-11-27T07:33:07.964Z,5.05
2022-11-27T07:38:09.767Z,5.23
2022-11-27T07:43:11.569Z,5.37
2022-11-27T07:48:13.365Z,5.52
2022-11-27T07:53:15.193Z,5.75
2022-11-27T07:58:17.294Z,6.08
2022-11-27T08:03:19.087Z,6.41
2022-11-27T08:08:20.983Z,6.74
2022-11-27T08:13:22.796Z,7.03
2022-11-27T08:18:24.955Z,7.36
2022-11-27T08:23:26.884Z,7.55
2022-11-27T08:28:28.786Z,7.89
2022-11-27T08:33:31.403Z,8.22
2022-11-27T08:38:33.269Z,8.43
2022-11-27T08:43:35.565Z,8.54
2022-11-27T08:48:37.572Z,8.77
2022-11-27T08:53:40.127Z,9.01
2022-11-27T08:58:42.205Z,9.08
2022-11-27T09:03:44.066Z,9.13
2022-11-27T09:08:45.968Z,9.30
2022-11-27T09:13:48.219Z,9.55
2022-11-27T09:18:52.539Z,9.63
2022-11-27T09:23:55.730Z,9.81
2022-11-27T09:28:58.990Z,9.88
2022-11-27T09:34:00.868Z,10.09
2022-11-27T09:39:03.760Z,10.28
2022-11-27T09:44:29.931Z,10.31
2022-11-27T09:49:58.591Z,10.13
2022-11-27T09:55:13.587Z,10.36
2022-11-27T10:00:18.509Z,10.58
2022-11-27T10:05:26.657Z,10.52
2022-11-27T10:11:05.872Z,10.33
2022-11-27T10:16:13.843Z,10.45
2022-11-27T10:21:24.664Z,10.63
2022-11-27T10:26:36.629Z,10.68
2022-11-27T10:31:50.415Z,10.71
2022-11-27T10:36:56.292Z,10.69
2022-11-27T10:42:11.253Z,10.59
2022-11-27T10:47:15.865Z,10.51
2022-11-27T10:52:19.989Z,10.45
2022-11-27T10:57:32.371Z,10.38
2022-11-27T11:02:38.635Z,10.33
2022-11-27T11:07:40.645Z,10.25
2022-11-27T11:12:42.510Z,10.22
2022-11-27T11:17:44.359Z,10.19
2022-11-27T11:22:47.995Z,10.13
2022-11-27T11:27:51.552Z,10.08
2022-11-27T11:33:03.145Z,10.08
2022-11-27T11:38:14.791Z,10.02
2022-11-27T11:43:32.482Z,10.13
2022-11-27T11:48:35.973Z,10.16
2022-11-27T11:53:44.472Z,10.10
2022-11-27T11:58:46.220Z,10.11
2022-11-27T12:04:00.223Z,10.10
2022-11-27T12:09:19.236Z,10.15
2022-11-27T12:14:27.139Z,10.24
2022-11-27T12:19:50.753Z,10.42
2022-11-27T12:25:22.273Z,12.20
2022-11-27T12:30:30.086Z,14.75
2022-11-27T12:35:52.138Z,17.33
2022-11-27T12:41:10.406Z,19.71
2022-11-27T12:46:37.679Z,21.29
2022-11-27T12:51:56.853Z,22.34
2022-11-27T12:57:07.452Z,22.73
2022-11-27T13:02:09.250Z,23.35
2022-11-27T13:07:19.986Z,24.17
2022-11-27T13:12:31.559Z,24.85
2022-11-27T13:17:43.137Z,25.24
2022-11-27T13:22:46.865Z,25.44
2022-11-27T13:27:51.907Z,25.58
2022-11-27T13:32:56.464Z,24.63
2022-11-27T13:38:08.887Z,24.58
2022-11-27T13:43:29.079Z,24.67
2022-11-27T13:48:37.692Z,24.81
2022-11-27T13:53:42.119Z,24.73
2022-11-27T13:58:43.994Z,23.03
2022-11-27T14:03:46.022Z,19.98
2022-11-27T14:09:07.346Z,17.51
2022-11-27T14:14:17.722Z,15.88
2022-11-27T14:19:44.374Z,14.48
2022-11-27T14:24:56.010Z,13.61
2022-11-27T14:29:57.820Z,12.93
2022-11-27T14:34:59.621Z,12.39
2022-11-27T14:40:13.724Z,11.79
2022-11-27T14:45:19.061Z,11.31
2022-11-27T14:50:22.072Z,10.90
2022-11-27T14:55:24.443Z,10.61
2022-11-27T15:00:27.376Z,10.49
2022-11-27T15:05:29.955Z,10.41
2022-11-27T15:10:40.599Z,10.14
2022-11-27T15:15:45.034Z,9.83
2022-11-27T15:20:47.482Z,9.61
2022-11-27T15:26:03.856Z,9.53
2022-11-27T15:31:25.555Z,9.45
2022-11-27T15:36:33.741Z,9.30
2022-11-27T15:41:40.818Z,9.11
2022-11-27T15:46:45.575Z,8.94
2022-11-27T15:51:47.442Z,8.73
2022-11-27T15:56:49.648Z,8.56
2022-11-27T16:01:51.589Z,8.40
2022-11-27T16:06:53.665Z,8.36
2022-11-27T16:11:55.646Z,8.25
2022-11-27T16:16:57.529Z,8.16
2022-11-27T16:21:59.358Z,8.09
2022-11-27T16:27:01.190Z,8.01
2022-11-27T16:32:03.430Z,7.95
2022-11-27T16:37:05.325Z,7.93
2022-11-27T16:42:07.510Z,7.88
2022-11-27T16:47:10.543Z,7.77
2022-11-27T16:52:12.646Z,7.57
2022-11-27T16:57:14.527Z,7.43
2022-11-27T17:02:16.987Z,7.15
2022-11-27T17:07:18.849Z,6.87
2022-11-27T17:12:20.824Z,6.81
2022-11-27T17:17:22.672Z,6.75
2022-11-27T17:22:26.809Z,6.65
2022-11-27T17:27:28.692Z,6.64
2022-11-27T17:32:31.124Z,6.66
2022-11-27T17:37:33.025Z,6.68
2022-11-27T17:42:34.872Z,6.66
2022-11-27T17:47:36.677Z,6.60
2022-11-27T17:52:40.033Z,6.57
2022-11-27T17:57:42.035Z,6.56
2022-11-27T18:02:43.969Z,6.64
2022-11-27T18:07:45.961Z,6.70
2022-11-27T18:12:47.866Z,6.77
2022-11-27T18:17:49.747Z,6.75
2022-11-27T18:22:51.637Z,6.74
2022-11-27T18:27:53.617Z,6.74
2022-11-27T18:32:55.438Z,6.70
2022-11-27T18:37:57.253Z,6.61
2022-11-27T18:42:59.074Z,6.56
2022-11-27T18:48:00.945Z,6.54
2022-11-27T18:53:03.326Z,6.48
2022-11-27T18:58:05.196Z,6.44
2022-11-27T19:03:07.253Z,6.44
2022-11-27T19:08:10.364Z,6.45
2022-11-27T19:13:12.250Z,6.42
2022-11-27T19:18:14.510Z,6.39
2022-11-27T19:23:16.502Z,6.40
2022-11-27T19:28:18.515Z,6.38
2022-11-27T19:33:20.412Z,6.37
2022-11-27T19:38:22.236Z,6.36
2022-11-27T19:43:24.758Z,6.33
2022-11-27T19:48:27.481Z,6.28
2022-11-27T19:53:29.502Z,6.27
2022-11-27T19:58:32.428Z,6.28
2022-11-27T20:03:34.361Z,6.27
2022-11-27T20:08:36.362Z,6.26
2022-11-27T20:13:38.768Z,6.23
2022-11-27T20:18:41.270Z,6.13
2022-11-27T20:23:44.364Z,6.13
2022-11-27T20:28:46.364Z,6.06
2022-11-27T20:33:48.683Z,6.05
2022-11-27T20:38:52.232Z,6.03
2022-11-27T20:43:56.639Z,6.02
2022-11-27T20:48:59.562Z,5.99
2022-11-27T20:54:03.890Z,5.96
2022-11-27T20:59:07.995Z,5.95
2022-11-27T21:04:26.337Z,5.93
2022-11-27T21:09:29.421Z,5.87
2022-11-27T21:14:31.424Z,5.80
2022-11-27T21:19:33.348Z,5.76
2022-11-27T21:24:35.257Z,5.70
2022-11-27T21:29:37.661Z,5.69
2022-11-27T21:34:40.736Z,5.66
2022-11-27T21:39:44.712Z,5.68
2022-11-27T21:44:49.882Z,5.64
2022-11-27T21:49:52.028Z,5.59
2022-11-27T21:54:53.954Z,5.62
2022-11-27T21:59:55.831Z,5.60
2022-11-27T22:04:57.626Z,5.58
2022-11-27T22:09:59.451Z,5.58
2022-11-27T22:15:01.278Z,5.57
2022-11-27T22:20:03.351Z,5.58
2022-11-27T22:25:06.266Z,5.56
2022-11-27T22:30:08.835Z,5.55
2022-11-27T22:35:10.791Z,5.51
2022-11-27T22:40:13.363Z,5.50
2022-11-27T22:45:15.367Z,5.48
2022-11-27T22:50:17.343Z,5.48
2022-11-27T22:55:19.146Z,5.47
2022-11-27T23:00:21.689Z,5.46
2022-11-27T23:05:23.490Z,5.43
2022-11-27T23:10:25.852Z,5.43
2022-11-27T23:15:27.698Z,5.43
2022-11-27T23:20:29.494Z,5.41
2022-11-27T23:25:31.311Z,5.39
2022-11-27T23:30:35.229Z,5.40
2022-11-27T23:35:37.042Z,5.40
2022-11-27T23:40:39.518Z,5.40
2022-11-27T23:45:41.405Z,5.42
2022-11-27T23:50:43.302Z,5.43
2022-11-27T23:55:45.127Z,5.45
